createdAt,value
2018-12-29T00:00:06.075Z,94.2
2018-12-29T00:01:03.985Z,94.5
2018-12-29T00:02:03.312Z,94.2
2018-12-29T00:03:03.058Z,94
2018-12-29T00:04:03.012Z,92.8
2018-12-29T00:05:03.007Z,92.8
2018-12-29T00:06:03.760Z,92.6
2018-12-29T00:07:03.559Z,92.6
2018-12-29T00:08:03.868Z,94.5
2018-12-29T00:09:03.368Z,92.6
2018-12-29T00:10:03.451Z,92.8
2018-12-29T00:11:03.501Z,92.4
2018-12-29T00:12:03.106Z,93.1
2018-12-29T00:13:04.022Z,93.1
2018-12-29T00:14:03.450Z,94.9
2018-12-29T00:15:03.153Z,94.9
2018-12-29T00:16:03.828Z,96.8
2018-12-29T00:17:03.162Z,94.9
2018-12-29T00:18:03.350Z,96.1
2018-12-29T00:19:03.432Z,93.8
2018-12-29T00:20:03.050Z,94.7
2018-12-29T00:21:03.208Z,94
2018-12-29T00:22:03.101Z,91.4
2018-12-29T00:23:03.109Z,91.9
2018-12-29T00:24:03.266Z,93.5
2018-12-29T00:25:03.808Z,92.4
2018-12-29T00:26:02.938Z,93.5
2018-12-29T00:27:03.319Z,92.8
2018-12-29T00:28:03.537Z,91.4
2018-12-29T00:29:03.624Z,91.9
2018-12-29T00:30:03.417Z,91.9
2018-12-29T00:31:03.614Z,92.8
2018-12-29T00:32:03.165Z,93.3
2018-12-29T00:33:03.145Z,94
2018-12-29T00:34:03.524Z,95.2
2018-12-29T00:35:03.148Z,94.5
2018-12-29T00:36:02.982Z,94.9
2018-12-29T00:37:03.447Z,96.3
2018-12-29T00:38:03.787Z,94.9
2018-12-29T00:39:04.010Z,95.6
2018-12-29T00:40:03.728Z,95.6
2018-12-29T00:41:03.366Z,96.8
2018-12-29T00:42:03.494Z,95.2
2018-12-29T00:43:03.697Z,96.3
2018-12-29T00:44:03.216Z,95.6
2018-12-29T00:45:03.663Z,95.2
2018-12-29T00:46:03.510Z,95.2
2018-12-29T00:47:03.858Z,95.4
2018-12-29T00:48:03.389Z,92.4
2018-12-29T00:49:03.466Z,93.5
2018-12-29T00:50:03.939Z,92.8
2018-12-29T00:51:03.593Z,94.2
2018-12-29T00:52:03.583Z,94
2018-12-29T00:53:03.431Z,94
2018-12-29T00:54:03.065Z,92.6
2018-12-29T00:55:03.174Z,93.3
2018-12-29T00:56:03.026Z,92.8
2018-12-29T00:57:03.365Z,91.4
2018-12-29T00:58:03.028Z,90.3
2018-12-29T00:59:03.650Z,89.6
2018-12-29T01:00:03.470Z,89.1
2018-12-29T01:01:03.342Z,90
2018-12-29T01:02:03.543Z,88.6
2018-12-29T01:03:03.259Z,89.1
2018-12-29T01:04:03.176Z,88.2
2018-12-29T01:05:03.832Z,87.9
2018-12-29T01:06:02.901Z,86.8
2018-12-29T01:07:03.128Z,85.8
2018-12-29T01:08:03.599Z,87
2018-12-29T01:09:03.437Z,87.7
2018-12-29T01:10:03.292Z,87.2
2018-12-29T01:11:04.111Z,88.2
2018-12-29T01:12:02.991Z,88.2
2018-12-29T01:13:03.596Z,87
2018-12-29T01:14:02.862Z,87
2018-12-29T01:15:10.547Z,86.1
2018-12-29T01:16:03.173Z,86.3
2018-12-29T01:17:03.093Z,83.7
2018-12-29T01:18:04.022Z,86.1
2018-12-29T01:19:03.480Z,85.6
2018-12-29T01:20:03.100Z,85.8
2018-12-29T01:21:03.143Z,86.8
2018-12-29T01:22:03.098Z,85.8
2018-12-29T01:23:03.555Z,84.7
2018-12-29T01:24:03.444Z,84.7
2018-12-29T01:25:03.166Z,84.2
2018-12-29T01:26:03.353Z,83.5
2018-12-29T01:27:03.406Z,85.1
2018-12-29T01:28:02.981Z,84
2018-12-29T01:29:03.646Z,85.8
2018-12-29T01:30:04.330Z,84.2
2018-12-29T01:31:03.788Z,84.7
2018-12-29T01:32:03.677Z,83.5
2018-12-29T01:33:03.761Z,84.7
2018-12-29T01:34:03.377Z,83
2018-12-29T01:35:03.754Z,85.1
2018-12-29T01:36:03.964Z,84.4
2018-12-29T01:37:03.653Z,85.6
2018-12-29T01:38:03.425Z,85.8
2018-12-29T01:39:03.738Z,86.3
2018-12-29T01:40:03.455Z,85.1
2018-12-29T01:41:03.552Z,86.8
2018-12-29T01:42:03.077Z,85.6
2018-12-29T01:43:03.089Z,85.8
2018-12-29T01:44:03.463Z,85.8
2018-12-29T01:45:03.178Z,86.3
2018-12-29T01:46:03.005Z,87
2018-12-29T01:47:03.610Z,88.2
2018-12-29T01:48:03.996Z,87.9
2018-12-29T01:49:03.319Z,87.9
2018-12-29T01:50:03.860Z,87.5
2018-12-29T01:51:03.176Z,87.7
2018-12-29T01:52:02.851Z,87.5
2018-12-29T01:53:03.219Z,87
2018-12-29T01:54:03.974Z,87.5
2018-12-29T01:55:03.497Z,88.6
2018-12-29T01:56:03.121Z,88.4
2018-12-29T01:57:03.389Z,88.9
2018-12-29T01:58:03.866Z,88.6
2018-12-29T01:59:03.630Z,89.1
2018-12-29T02:00:03.955Z,88.4
2018-12-29T02:01:03.308Z,90
2018-12-29T02:02:03.284Z,91.4
2018-12-29T02:03:03.087Z,89.3
2018-12-29T02:04:03.548Z,91
2018-12-29T02:05:04.029Z,91.4
2018-12-29T02:06:03.062Z,92.4
2018-12-29T02:07:03.798Z,90.7
2018-12-29T02:08:03.794Z,93.1
2018-12-29T02:09:03.771Z,92.1
2018-12-29T02:10:03.598Z,91.4
2018-12-29T02:11:03.686Z,91.9
2018-12-29T02:12:03.574Z,93.1
2018-12-29T02:13:02.911Z,94
2018-12-29T02:14:03.403Z,92.8
2018-12-29T02:15:02.794Z,95.6
2018-12-29T02:16:03.181Z,93.3
2018-12-29T02:17:02.940Z,92.8
2018-12-29T02:18:03.766Z,94
2018-12-29T02:19:03.439Z,93.5
2018-12-29T02:20:03.506Z,92.4
2018-12-29T02:21:03.900Z,93.5
2018-12-29T02:22:03.513Z,94
2018-12-29T02:23:03.063Z,93.8
2018-12-29T02:24:03.362Z,94.5
2018-12-29T02:25:03.494Z,95.2
2018-12-29T02:26:03.126Z,94.2
2018-12-29T02:27:03.329Z,93.8
2018-12-29T02:28:03.283Z,92.4
2018-12-29T02:29:02.905Z,92.4
2018-12-29T02:30:03.803Z,91.9
2018-12-29T02:31:03.207Z,92.6
2018-12-29T02:32:03.118Z,91.4
2018-12-29T02:33:03.251Z,91.4
2018-12-29T02:34:03.231Z,88.9
2018-12-29T02:35:03.485Z,90.3
2018-12-29T02:36:03.625Z,89.3
2018-12-29T02:37:03.729Z,89.8
2018-12-29T02:38:03.501Z,89.6
2018-12-29T02:39:03.689Z,87.9
2018-12-29T02:40:03.528Z,87.5
2018-12-29T02:41:03.154Z,88.4
2018-12-29T02:42:03.358Z,88.4
2018-12-29T02:43:03.621Z,87.7
2018-12-29T02:44:02.992Z,87.9
2018-12-29T02:45:03.724Z,89.3
2018-12-29T02:46:03.386Z,89.3
2018-12-29T02:47:03.746Z,89.3
2018-12-29T02:48:03.620Z,89.1
2018-12-29T02:49:03.159Z,90.3
2018-12-29T02:50:03.611Z,90.5
2018-12-29T02:51:03.637Z,90.3
2018-12-29T02:52:03.604Z,90
2018-12-29T02:53:03.118Z,90.7
2018-12-29T02:54:03.368Z,91.4
2018-12-29T02:55:03.277Z,91.9
2018-12-29T02:56:03.111Z,90
2018-12-29T02:57:03.844Z,92.6
2018-12-29T02:58:03.582Z,91.2
2018-12-29T02:59:03.199Z,92.4
2018-12-29T03:00:03.310Z,90.3
2018-12-29T03:01:03.387Z,89.3
2018-12-29T03:02:03.621Z,90.5
2018-12-29T03:03:03.643Z,87.9
2018-12-29T03:04:03.234Z,89.1
2018-12-29T03:05:03.239Z,89.6
2018-12-29T03:06:03.467Z,88.2
2018-12-29T03:07:03.369Z,87.7
2018-12-29T03:08:03.318Z,88.4
2018-12-29T03:09:03.925Z,87.9
2018-12-29T03:10:03.649Z,86.8
2018-12-29T03:11:03.934Z,87.2
2018-12-29T03:12:02.875Z,87.9
2018-12-29T03:13:03.503Z,87.2
2018-12-29T03:14:03.377Z,86.1
2018-12-29T03:15:03.383Z,87.2
2018-12-29T03:16:03.766Z,86.1
2018-12-29T03:17:03.323Z,85.1
2018-12-29T03:18:02.821Z,87.5
2018-12-29T03:19:03.111Z,85.8
2018-12-29T03:20:03.100Z,85.1
2018-12-29T03:21:03.574Z,85.1
2018-12-29T03:22:03.370Z,84.4
2018-12-29T03:23:02.803Z,84.2
2018-12-29T03:24:03.576Z,84
2018-12-29T03:25:03.426Z,85.4
2018-12-29T03:26:03.473Z,85.1
2018-12-29T03:27:03.829Z,85.4
2018-12-29T03:28:03.781Z,87.5
2018-12-29T03:29:03.037Z,85.8
2018-12-29T03:30:03.162Z,88.4
2018-12-29T03:31:03.049Z,87.7
2018-12-29T03:32:03.925Z,88.9
2018-12-29T03:33:02.951Z,89.1
2018-12-29T03:34:03.239Z,89.8
2018-12-29T03:35:03.688Z,90.5
2018-12-29T03:36:02.936Z,89.3
2018-12-29T03:37:02.776Z,91.4
2018-12-29T03:38:04.104Z,91.2
2018-12-29T03:39:04.032Z,91
2018-12-29T03:40:03.834Z,92.8
2018-12-29T03:41:03.845Z,91.7
2018-12-29T03:42:03.130Z,92.6
2018-12-29T03:43:03.257Z,91.2
2018-12-29T03:44:03.230Z,90.7
2018-12-29T03:45:03.778Z,90.5
2018-12-29T03:46:03.081Z,90.5
2018-12-29T03:47:03.532Z,90.5
2018-12-29T03:48:03.380Z,91
2018-12-29T03:49:03.428Z,88.9
2018-12-29T03:50:02.995Z,89.8
2018-12-29T03:51:02.913Z,88.4
2018-12-29T03:52:03.153Z,89.1
2018-12-29T03:53:03.534Z,88.2
2018-12-29T03:54:03.608Z,89.6
2018-12-29T03:55:04.190Z,87.7
2018-12-29T03:56:02.987Z,86.5
2018-12-29T03:57:03.816Z,87
2018-12-29T03:58:03.909Z,85.6
2018-12-29T03:59:03.487Z,85.6
2018-12-29T04:00:03.924Z,85.8
2018-12-29T04:01:03.543Z,86.1
2018-12-29T04:02:03.583Z,87
2018-12-29T04:03:03.773Z,88.6
2018-12-29T04:04:03.917Z,88.6
2018-12-29T04:05:03.927Z,88.9
2018-12-29T04:06:03.578Z,90.7
2018-12-29T04:07:03.432Z,91.9
2018-12-29T04:08:03.386Z,91
2018-12-29T04:09:03.411Z,92.6
2018-12-29T04:10:02.992Z,92.1
2018-12-29T04:11:03.183Z,91.9
2018-12-29T04:12:03.695Z,92.8
2018-12-29T04:13:03.690Z,92.4
2018-12-29T04:14:03.145Z,91.2
2018-12-29T04:15:03.533Z,91.4
2018-12-29T04:16:03.669Z,92.4
2018-12-29T04:17:03.806Z,89.8
2018-12-29T04:18:02.974Z,91.9
2018-12-29T04:19:03.406Z,90.7
2018-12-29T04:20:03.910Z,90.7
2018-12-29T04:21:03.190Z,91.2
2018-12-29T04:22:03.150Z,91.9
2018-12-29T04:23:03.680Z,92.6
2018-12-29T04:24:02.771Z,92.8
2018-12-29T04:25:03.031Z,92.1
2018-12-29T04:26:03.302Z,91
2018-12-29T04:27:03.576Z,89.3
2018-12-29T04:28:03.682Z,90
2018-12-29T04:29:03.267Z,88.2
2018-12-29T04:30:03.747Z,89.3
2018-12-29T04:31:03.129Z,88.9
2018-12-29T04:32:03.021Z,88.2
2018-12-29T04:33:03.752Z,87.2
2018-12-29T04:34:03.551Z,87.5
2018-12-29T04:35:03.887Z,85.8
2018-12-29T04:36:02.869Z,84.7
2018-12-29T04:37:02.825Z,85.1
2018-12-29T04:38:03.119Z,84.2
2018-12-29T04:39:02.960Z,84
2018-12-29T04:40:03.485Z,83.3
2018-12-29T04:41:03.104Z,83.7
2018-12-29T04:42:03.320Z,82.3
2018-12-29T04:43:03.793Z,83.5
2018-12-29T04:44:03.989Z,83.7
2018-12-29T04:45:03.895Z,83.3
2018-12-29T04:46:05.750Z,83.3
2018-12-29T04:47:03.731Z,83
2018-12-29T04:48:03.068Z,85.6
2018-12-29T04:49:03.634Z,84.4
2018-12-29T04:50:03.880Z,84.7
2018-12-29T04:51:03.489Z,83.7
2018-12-29T04:52:03.283Z,85.4
2018-12-29T04:53:02.851Z,83
2018-12-29T04:54:03.369Z,84.4
2018-12-29T04:55:03.873Z,84.2
2018-12-29T04:56:02.925Z,84.9
2018-12-29T04:57:03.681Z,85.8
2018-12-29T04:58:03.276Z,86.3
2018-12-29T04:59:03.841Z,87.7
2018-12-29T05:00:03.584Z,87.9
2018-12-29T05:01:03.785Z,88.4
2018-12-29T05:02:03.588Z,88.6
2018-12-29T05:03:03.168Z,86.8
2018-12-29T05:04:03.811Z,87
2018-12-29T05:05:03.910Z,86.1
2018-12-29T05:06:03.660Z,86.1
2018-12-29T05:07:03.369Z,86.1
2018-12-29T05:08:02.995Z,84.7
2018-12-29T05:09:03.747Z,85.4
2018-12-29T05:10:03.419Z,84.4
2018-12-29T05:11:03.591Z,85.1
2018-12-29T05:12:03.004Z,86.1
2018-12-29T05:13:03.406Z,86.1
2018-12-29T05:14:03.558Z,86.8
2018-12-29T05:15:03.802Z,88.2
2018-12-29T05:16:03.370Z,89.3
2018-12-29T05:17:03.304Z,88.6
2018-12-29T05:18:03.812Z,90
2018-12-29T05:19:03.979Z,91.2
2018-12-29T05:20:03.137Z,90.3
2018-12-29T05:21:03.727Z,91.4
2018-12-29T05:22:03.077Z,92.1
2018-12-29T05:23:03.370Z,91.9
2018-12-29T05:24:03.079Z,91
2018-12-29T05:25:03.143Z,91.9
2018-12-29T05:26:03.845Z,91.2
2018-12-29T05:27:03.065Z,91.4
2018-12-29T05:28:03.678Z,93.1
2018-12-29T05:29:03.398Z,91.2
2018-12-29T05:30:03.630Z,92.6
2018-12-29T05:31:03.865Z,92.8
2018-12-29T05:32:03.197Z,91.9
2018-12-29T05:33:03.084Z,92.1
2018-12-29T05:34:04.077Z,94.2
2018-12-29T05:35:03.466Z,92.4
2018-12-29T05:36:03.789Z,95.2
2018-12-29T05:37:03.198Z,94.7
2018-12-29T05:38:03.893Z,95.2
2018-12-29T05:39:02.956Z,95.9
2018-12-29T05:40:03.202Z,97
2018-12-29T05:41:03.993Z,98.9
2018-12-29T05:42:03.448Z,97
2018-12-29T05:43:03.186Z,98.9
2018-12-29T05:44:03.400Z,100.1
2018-12-29T05:45:03.976Z,98
2018-12-29T05:46:03.265Z,98.9
2018-12-29T05:47:03.552Z,98.4
2018-12-29T05:48:02.800Z,97.5
2018-12-29T05:49:03.852Z,98.4
2018-12-29T05:50:03.203Z,99.6
2018-12-29T05:51:03.016Z,99.1
2018-12-29T05:52:03.628Z,101.5
2018-12-29T05:53:03.860Z,101.7
2018-12-29T05:54:03.852Z,101.5
2018-12-29T05:55:03.644Z,101.9
2018-12-29T05:56:03.193Z,100.8
2018-12-29T05:57:03.314Z,100.3
2018-12-29T05:58:03.693Z,100.5
2018-12-29T05:59:03.064Z,100.3
2018-12-29T06:00:03.061Z,99.4
2018-12-29T06:01:03.428Z,99.8
2018-12-29T06:02:03.850Z,99.4
2018-12-29T06:03:03.769Z,101.2
2018-12-29T06:04:02.970Z,100.1
2018-12-29T06:05:04.111Z,103.1
2018-12-29T06:06:03.648Z,102.4
2018-12-29T06:07:03.698Z,102.2
2018-12-29T06:08:03.321Z,103.6
2018-12-29T06:09:03.406Z,103.8
2018-12-29T06:10:03.084Z,104
2018-12-29T06:11:02.877Z,103.8
2018-12-29T06:12:02.832Z,105.9
2018-12-29T06:13:03.848Z,103.8
2018-12-29T06:14:03.221Z,105.9
2018-12-29T06:15:03.215Z,105.7
2018-12-29T06:16:03.139Z,105.7
2018-12-29T06:17:02.873Z,105.4
2018-12-29T06:18:03.301Z,105
2018-12-29T06:19:02.903Z,105.7
2018-12-29T06:20:03.875Z,104.7
2018-12-29T06:21:03.067Z,103.8
2018-12-29T06:22:03.031Z,104.3
2018-12-29T06:23:02.960Z,104
2018-12-29T06:24:03.276Z,104.7
2018-12-29T06:25:02.981Z,105.2
2018-12-29T06:26:03.235Z,105.7
2018-12-29T06:27:03.432Z,104.5
2018-12-29T06:28:03.588Z,105.9
2018-12-29T06:29:03.106Z,107.1
2018-12-29T06:30:03.336Z,108.5
2018-12-29T06:31:03.572Z,107.5
2018-12-29T06:32:03.073Z,107.1
2018-12-29T06:33:03.926Z,107.1
2018-12-29T06:34:03.792Z,105.9
2018-12-29T06:35:03.165Z,106.1
2018-12-29T06:36:03.021Z,105.9
2018-12-29T06:37:03.517Z,105.2
2018-12-29T06:38:03.354Z,104.7
2018-12-29T06:39:02.948Z,103.3
2018-12-29T06:40:02.888Z,104
2018-12-29T06:41:03.267Z,104
2018-12-29T06:42:02.742Z,103.6
2018-12-29T06:43:02.947Z,103.3
2018-12-29T06:44:03.902Z,103.6
2018-12-29T06:45:03.486Z,101.7
2018-12-29T06:46:03.152Z,104.3
2018-12-29T06:47:03.635Z,102.9
2018-12-29T06:48:03.706Z,101.9
2018-12-29T06:49:03.701Z,102.9
2018-12-29T06:50:03.358Z,101.5
2018-12-29T06:51:03.357Z,99.6
2018-12-29T06:52:03.577Z,98.2
2018-12-29T06:53:03.011Z,97.7
2018-12-29T06:54:03.699Z,96.3
2018-12-29T06:55:03.272Z,96.3
2018-12-29T06:56:03.731Z,97.5
2018-12-29T06:57:03.778Z,94.9
2018-12-29T06:58:02.977Z,97.5
2018-12-29T06:59:03.448Z,96.6
2018-12-29T07:00:03.216Z,97.7
2018-12-29T07:01:02.959Z,98
2018-12-29T07:02:03.824Z,98.2
2018-12-29T07:03:03.864Z,98
2018-12-29T07:04:03.201Z,96.8
2018-12-29T07:05:03.823Z,97.3
2018-12-29T07:06:03.021Z,96.1
2018-12-29T07:07:03.139Z,95.9
2018-12-29T07:08:03.622Z,94.9
2018-12-29T07:09:02.964Z,93.5
2018-12-29T07:10:03.539Z,92.1
2018-12-29T07:11:03.055Z,92.6
2018-12-29T07:12:04.798Z,91.7
2018-12-29T07:13:03.435Z,89.6
2018-12-29T07:14:03.513Z,91
2018-12-29T07:15:02.983Z,89.1
2018-12-29T07:16:03.401Z,89.8
2018-12-29T07:17:03.481Z,89.1
2018-12-29T07:18:03.414Z,87.9
2018-12-29T07:19:03.752Z,88.4
2018-12-29T07:20:03.222Z,87.9
2018-12-29T07:21:03.334Z,88.9
2018-12-29T07:22:03.452Z,90
2018-12-29T07:23:03.358Z,89.6
2018-12-29T07:24:03.554Z,89.8
2018-12-29T07:25:03.429Z,89.6
2018-12-29T07:26:03.300Z,89.8
2018-12-29T07:27:03.572Z,90
2018-12-29T07:28:03.367Z,88.9
2018-12-29T07:29:04.400Z,89.3
2018-12-29T07:30:03.519Z,89.8
2018-12-29T07:31:03.221Z,88.2
2018-12-29T07:32:03.858Z,89.8
2018-12-29T07:33:03.651Z,88.6
2018-12-29T07:34:03.915Z,89.1
2018-12-29T07:35:03.064Z,89.1
2018-12-29T07:36:03.602Z,91
2018-12-29T07:37:03.314Z,89.8
2018-12-29T07:38:03.197Z,91.9
2018-12-29T07:39:03.265Z,91
2018-12-29T07:40:03.601Z,92.4
2018-12-29T07:41:03.421Z,92.8
2018-12-29T07:42:03.250Z,93.1
2018-12-29T07:43:03.016Z,92.6
2018-12-29T07:44:03.529Z,91.7
2018-12-29T07:45:03.453Z,91.7
2018-12-29T07:46:02.999Z,93.3
2018-12-29T07:47:03.054Z,93.8
2018-12-29T07:48:03.809Z,94.5
2018-12-29T07:49:03.142Z,95.9
2018-12-29T07:50:03.378Z,96.3
2018-12-29T07:51:03.785Z,95.4
2018-12-29T07:52:03.655Z,96.6
2018-12-29T07:53:03.323Z,97
2018-12-29T07:54:03.084Z,96.1
2018-12-29T07:55:03.718Z,96.6
2018-12-29T07:56:03.358Z,96.8
2018-12-29T07:57:03.257Z,96.3
2018-12-29T07:58:03.665Z,96.6
2018-12-29T07:59:02.933Z,94.7
2018-12-29T08:00:03.327Z,96.3
2018-12-29T08:01:03.841Z,94
2018-12-29T08:02:03.660Z,94
2018-12-29T08:03:03.155Z,93.1
2018-12-29T08:04:03.046Z,93.8
2018-12-29T08:05:03.587Z,92.4
2018-12-29T08:06:03.123Z,91.7
2018-12-29T08:07:02.860Z,92.8
2018-12-29T08:08:03.589Z,93.1
2018-12-29T08:09:03.781Z,92.1
2018-12-29T08:10:02.841Z,91.4
2018-12-29T08:11:03.713Z,94
2018-12-29T08:12:03.556Z,91.7
2018-12-29T08:13:03.292Z,92.1
2018-12-29T08:14:03.762Z,91.7
2018-12-29T08:15:02.908Z,92.4
2018-12-29T08:16:02.855Z,91.7
2018-12-29T08:17:03.820Z,90.7
2018-12-29T08:18:03.474Z,89.8
2018-12-29T08:19:03.567Z,88.6
2018-12-29T08:20:03.242Z,88.9
2018-12-29T08:21:03.301Z,87.9
2018-12-29T08:22:03.823Z,89.6
2018-12-29T08:23:03.421Z,88.6
2018-12-29T08:24:03.221Z,89.3
2018-12-29T08:25:03.102Z,89.3
2018-12-29T08:26:03.014Z,89.1
2018-12-29T08:27:03.519Z,88.6
2018-12-29T08:28:03.203Z,88.2
2018-12-29T08:29:02.797Z,89.6
2018-12-29T08:30:03.927Z,87.7
2018-12-29T08:31:03.241Z,88.6
2018-12-29T08:32:03.644Z,88.9
2018-12-29T08:33:03.561Z,90
2018-12-29T08:34:03.022Z,88.2
2018-12-29T08:35:03.587Z,89.3
2018-12-29T08:36:03.713Z,89.6
2018-12-29T08:37:03.229Z,87.2
2018-12-29T08:38:03.729Z,87.9
2018-12-29T08:39:03.693Z,85.8
2018-12-29T08:40:03.515Z,87.9
2018-12-29T08:41:03.080Z,85.1
2018-12-29T08:42:03.926Z,87
2018-12-29T08:43:03.348Z,86.1
2018-12-29T08:44:03.312Z,88.4
2018-12-29T08:45:03.945Z,87.5
2018-12-29T08:46:03.865Z,85.8
2018-12-29T08:47:05.131Z,86.1
2018-12-29T08:48:03.885Z,85.1
2018-12-29T08:49:03.621Z,85.4
2018-12-29T08:50:03.999Z,85.4
2018-12-29T08:51:03.833Z,85.8
2018-12-29T08:52:02.922Z,86.5
2018-12-29T08:53:03.119Z,86.3
2018-12-29T08:54:02.789Z,87
2018-12-29T08:55:03.450Z,86.8
2018-12-29T08:56:04.009Z,85.8
2018-12-29T08:57:03.312Z,86.5
2018-12-29T08:58:03.184Z,86.5
2018-12-29T08:59:03.166Z,84.9
2018-12-29T09:00:04.053Z,86.5
2018-12-29T09:01:03.077Z,86.1
2018-12-29T09:02:03.385Z,85.4
2018-12-29T09:03:03.387Z,85.8
2018-12-29T09:04:03.135Z,87
2018-12-29T09:05:03.895Z,85.6
2018-12-29T09:06:02.976Z,85.4
2018-12-29T09:07:03.714Z,85.6
2018-12-29T09:08:03.162Z,86.1
2018-12-29T09:09:03.673Z,84.4
2018-12-29T09:10:03.980Z,85.4
2018-12-29T09:11:03.208Z,84.4
2018-12-29T09:12:03.198Z,85.6
2018-12-29T09:13:03.617Z,84
2018-12-29T09:14:03.736Z,85.8
2018-12-29T09:15:03.094Z,84.7
2018-12-29T09:16:03.613Z,86.3
2018-12-29T09:17:03.213Z,86.1
2018-12-29T09:18:03.701Z,86.8
2018-12-29T09:19:03.080Z,87.9
2018-12-29T09:20:03.636Z,86.8
2018-12-29T09:21:03.196Z,87.5
2018-12-29T09:22:03.820Z,85.4
2018-12-29T09:23:03.713Z,87.2
2018-12-29T09:24:02.974Z,85.1
2018-12-29T09:25:03.757Z,86.5
2018-12-29T09:26:04.897Z,86.8
2018-12-29T09:27:03.288Z,84.2
2018-12-29T09:28:03.579Z,85.4
2018-12-29T09:29:03.566Z,86.8
2018-12-29T09:30:03.592Z,84.7
2018-12-29T09:31:03.241Z,86.1
2018-12-29T09:32:03.601Z,84.9
2018-12-29T09:33:03.489Z,85.8
2018-12-29T09:34:03.537Z,85.8
2018-12-29T09:35:03.719Z,84.2
2018-12-29T09:36:03.058Z,86.3
2018-12-29T09:37:03.342Z,86.1
2018-12-29T09:38:03.703Z,87.7
2018-12-29T09:39:03.974Z,87
2018-12-29T09:40:04.058Z,88.6
2018-12-29T09:41:03.166Z,87
2018-12-29T09:42:03.693Z,87
2018-12-29T09:43:03.281Z,86.5
2018-12-29T09:44:03.233Z,87.2
2018-12-29T09:45:04.440Z,88.2
2018-12-29T09:46:03.397Z,85.1
2018-12-29T09:47:03.748Z,88.2
2018-12-29T09:48:03.560Z,85.6
2018-12-29T09:49:03.098Z,87.5
2018-12-29T09:50:03.407Z,85.8
2018-12-29T09:51:03.683Z,85.6
2018-12-29T09:52:03.245Z,85.6
2018-12-29T09:53:03.827Z,86.1
2018-12-29T09:54:03.407Z,85.8
2018-12-29T09:55:03.065Z,87.7
2018-12-29T09:56:03.098Z,85.8
2018-12-29T09:57:03.487Z,88.6
2018-12-29T09:58:03.132Z,88.2
2018-12-29T09:59:03.596Z,87.9
2018-12-29T10:00:03.864Z,90.5
2018-12-29T10:01:03.382Z,88.6
2018-12-29T10:02:02.979Z,88.6
2018-12-29T10:03:03.878Z,88.9
2018-12-29T10:04:03.487Z,89.1
2018-12-29T10:05:03.188Z,89.1
2018-12-29T10:06:03.884Z,89.8
2018-12-29T10:07:03.412Z,89.3
2018-12-29T10:08:03.568Z,91.4
2018-12-29T10:09:03.792Z,90
2018-12-29T10:10:03.217Z,93.1
2018-12-29T10:11:03.955Z,90.5
2018-12-29T10:12:03.518Z,91.7
2018-12-29T10:13:03.455Z,93.1
2018-12-29T10:14:02.997Z,94
2018-12-29T10:15:03.909Z,92.6
2018-12-29T10:16:03.492Z,93.5
2018-12-29T10:17:03.981Z,92.1
2018-12-29T10:18:03.774Z,93.3
2018-12-29T10:19:03.690Z,92.8
2018-12-29T10:20:03.035Z,92.8
2018-12-29T10:21:03.476Z,94.2
2018-12-29T10:22:03.234Z,93.1
2018-12-29T10:23:03.363Z,95.9
2018-12-29T10:24:03.609Z,94.9
2018-12-29T10:25:03.729Z,96.3
2018-12-29T10:26:03.436Z,96.3
2018-12-29T10:27:03.106Z,96.1
2018-12-29T10:28:03.477Z,95.4
2018-12-29T10:29:03.243Z,95.6
2018-12-29T10:30:03.646Z,94
2018-12-29T10:31:03.657Z,95.2
2018-12-29T10:32:03.362Z,93.8
2018-12-29T10:33:02.969Z,95.9
2018-12-29T10:34:03.334Z,94.2
2018-12-29T10:35:03.161Z,95.4
2018-12-29T10:36:03.523Z,95.2
2018-12-29T10:37:03.572Z,94.5
2018-12-29T10:38:02.904Z,94.2
2018-12-29T10:39:03.489Z,92.6
2018-12-29T10:40:03.151Z,91.9
2018-12-29T10:41:03.451Z,92.1
2018-12-29T10:42:03.539Z,93.1
2018-12-29T10:43:03.508Z,92.4
2018-12-29T10:44:03.196Z,93.3
2018-12-29T10:45:03.185Z,93.1
2018-12-29T10:46:03.564Z,91.9
2018-12-29T10:47:03.254Z,93.1
2018-12-29T10:48:03.125Z,92.4
2018-12-29T10:49:03.819Z,91.4
2018-12-29T10:50:04.016Z,91
2018-12-29T10:51:03.477Z,90.7
2018-12-29T10:52:03.818Z,90.5
2018-12-29T10:53:03.841Z,91
2018-12-29T10:54:03.326Z,90.5
2018-12-29T10:55:03.521Z,91
2018-12-29T10:56:03.391Z,90
2018-12-29T10:57:03.852Z,90.7
2018-12-29T10:58:03.520Z,89.3
2018-12-29T10:59:04.052Z,90.3
2018-12-29T11:00:03.909Z,89.3
2018-12-29T11:01:03.137Z,90.3
2018-12-29T11:02:03.838Z,91.2
2018-12-29T11:03:03.383Z,91.4
2018-12-29T11:04:03.154Z,91.7
2018-12-29T11:05:02.964Z,91.7
2018-12-29T11:06:03.633Z,91.9
2018-12-29T11:07:03.273Z,90
2018-12-29T11:08:03.246Z,91.9
2018-12-29T11:09:03.865Z,91
2018-12-29T11:10:03.456Z,93.1
2018-12-29T11:11:03.708Z,91
2018-12-29T11:12:03.413Z,90.5
2018-12-29T11:13:03.384Z,92.1
2018-12-29T11:14:02.930Z,90.3
2018-12-29T11:15:03.596Z,91.4
2018-12-29T11:16:03.176Z,90
2018-12-29T11:17:03.866Z,91.7
2018-12-29T11:18:03.237Z,91.7
2018-12-29T11:19:03.963Z,91
2018-12-29T11:20:03.577Z,94
2018-12-29T11:21:03.165Z,93.8
2018-12-29T11:22:03.317Z,93.5
2018-12-29T11:23:03.397Z,94.5
2018-12-29T11:24:03.599Z,92.6
2018-12-29T11:25:03.769Z,93.3
2018-12-29T11:26:03.646Z,92.8
2018-12-29T11:27:03.817Z,93.8
2018-12-29T11:28:02.757Z,92.4
2018-12-29T11:29:03.669Z,95.6
2018-12-29T11:30:03.751Z,94.2
2018-12-29T11:31:02.866Z,95.9
2018-12-29T11:32:03.493Z,94.9
2018-12-29T11:33:03.267Z,94.2
2018-12-29T11:34:03.964Z,93.1
2018-12-29T11:35:03.896Z,93.5
2018-12-29T11:36:03.146Z,92.4
2018-12-29T11:37:03.182Z,94.5
2018-12-29T11:38:03.587Z,93.1
2018-12-29T11:39:02.950Z,93.1
2018-12-29T11:40:03.071Z,94.7
2018-12-29T11:41:03.560Z,93.5
2018-12-29T11:42:03.222Z,93.1
2018-12-29T11:43:03.548Z,93.1
2018-12-29T11:44:03.113Z,93.5
2018-12-29T11:45:03.471Z,92.4
2018-12-29T11:46:03.649Z,92.8
2018-12-29T11:47:03.202Z,94.2
2018-12-29T11:48:03.283Z,94.9
2018-12-29T11:49:03.598Z,94.5
2018-12-29T11:50:03.971Z,94.5
2018-12-29T11:51:04.207Z,96.6
2018-12-29T11:52:03.257Z,95.4
2018-12-29T11:53:03.806Z,95.6
2018-12-29T11:54:02.946Z,96.1
2018-12-29T11:55:03.265Z,95.9
2018-12-29T11:56:03.007Z,94.7
2018-12-29T11:57:04.361Z,94
2018-12-29T11:58:03.611Z,92.6
2018-12-29T11:59:03.335Z,93.1
2018-12-29T12:00:04.511Z,91.9
2018-12-29T12:01:03.130Z,91.7
2018-12-29T12:02:03.372Z,92.4
2018-12-29T12:03:03.162Z,91.2
2018-12-29T12:04:03.030Z,90.5
2018-12-29T12:05:04.021Z,93.5
2018-12-29T12:06:04.007Z,93.3
2018-12-29T12:07:03.161Z,92.8
2018-12-29T12:08:03.723Z,94
2018-12-29T12:09:03.755Z,92.8
2018-12-29T12:10:03.723Z,94.9
2018-12-29T12:11:03.501Z,91.9
2018-12-29T12:12:03.842Z,93.8
2018-12-29T12:13:02.927Z,95.6
2018-12-29T12:14:03.780Z,94
2018-12-29T12:15:03.519Z,94.9
2018-12-29T12:16:03.810Z,94.5
2018-12-29T12:17:03.043Z,95.9
2018-12-29T12:18:03.929Z,93.3
2018-12-29T12:19:03.137Z,92.8
2018-12-29T12:20:03.873Z,92.8
2018-12-29T12:21:03.521Z,92.6
2018-12-29T12:22:03.019Z,91.4
2018-12-29T12:23:03.698Z,92.1
2018-12-29T12:24:03.237Z,89.1
2018-12-29T12:25:03.907Z,90.7
2018-12-29T12:26:03.029Z,91.2
2018-12-29T12:27:03.128Z,89.8
2018-12-29T12:28:04.015Z,88.2
2018-12-29T12:29:04.803Z,89.1
2018-12-29T12:30:03.549Z,88.9
2018-12-29T12:31:03.748Z,88.4
2018-12-29T12:32:03.546Z,88.6
2018-12-29T12:33:03.645Z,89.8
2018-12-29T12:34:04.027Z,91
2018-12-29T12:35:03.915Z,90
2018-12-29T12:36:04.025Z,90.7
2018-12-29T12:37:03.088Z,91.2
2018-12-29T12:38:03.461Z,90.3
2018-12-29T12:39:04.397Z,89.6
2018-12-29T12:40:03.919Z,91.4
2018-12-29T12:41:03.715Z,88.9
2018-12-29T12:42:03.686Z,91.2
2018-12-29T12:43:03.553Z,90.5
2018-12-29T12:44:03.055Z,91.9
2018-12-29T12:45:02.996Z,91
2018-12-29T12:46:03.254Z,89.8
2018-12-29T12:47:03.306Z,89.8
2018-12-29T12:48:05.654Z,88.6
2018-12-29T12:49:03.575Z,88.4
2018-12-29T12:50:04.738Z,89.3
2018-12-29T12:51:03.719Z,88.6
2018-12-29T12:52:03.509Z,88.6
2018-12-29T12:53:04.685Z,87.5
2018-12-29T12:54:03.395Z,87.2
2018-12-29T12:55:03.131Z,88.6
2018-12-29T12:56:03.499Z,89.1
2018-12-29T12:57:04.556Z,90.3
2018-12-29T12:58:04.635Z,91.2
2018-12-29T12:59:02.890Z,91.9
2018-12-29T13:00:04.900Z,93.5
2018-12-29T13:01:05.010Z,93.8
2018-12-29T13:02:03.238Z,94.9
2018-12-29T13:03:03.158Z,93.1
2018-12-29T13:04:02.879Z,91.4
2018-12-29T13:05:04.040Z,91.9
2018-12-29T13:06:03.410Z,90.5
2018-12-29T13:07:03.599Z,91.7
2018-12-29T13:08:03.314Z,91.4
2018-12-29T13:09:03.428Z,93.1
2018-12-29T13:10:05.355Z,93.3
2018-12-29T13:11:03.301Z,94.5
2018-12-29T13:12:02.991Z,94.2
2018-12-29T13:13:03.391Z,94.9
2018-12-29T13:14:03.483Z,93.8
2018-12-29T13:15:03.630Z,94.2
2018-12-29T13:16:03.880Z,93.5
2018-12-29T13:17:03.847Z,93.8
2018-12-29T13:18:03.959Z,93.5
2018-12-29T13:19:04.487Z,94
2018-12-29T13:20:05.402Z,92.8
2018-12-29T13:21:03.860Z,93.1